Terminal Aerodrome Forecast
Issued by NWS Green Bay, WI

Home | Current Version | Previous Version | Graphics & Text | Print | Product List | Glossary On
Versions: 1 2 3 4 5 6 7 8 9 10 11 12 13 14 15 16 17 18 19 20 21 22 23 24 25 26 27 28 29 30 31 32 33 34
000
FTUS43 KGRB 292338
TAFGRB
TAF
KGRB 292338Z 3000/3024 VRB03KT P6SM VCSH SCT035 BKN080
      TEMPO 3001/3003 3SM TSRA BR BKN035CB
     FM300400 VRB03KT P6SM VCSH SCT015 BKN100
     FM301000 VRB03KT 6SM BR BKN015 BKN035
      TEMPO 3010/3014 3SM BR BKN008
     FM301500 01008KT P6SM BKN020 BKN035
     FM301800 03011KT P6SM BKN035=

USA.gov is the U.S. government's official web portal to all federal, state and local government web resources and services.